createdAt,value
2023-05-05T00:00:14.474Z,4.00
2023-05-05T00:01:14.446Z,4.10
2023-05-05T00:02:14.505Z,4.30
2023-05-05T00:03:14.546Z,3.40
2023-05-05T00:04:14.437Z,3.90
2023-05-05T00:05:14.406Z,3.80
2023-05-05T00:06:14.416Z,3.70
2023-05-05T00:07:14.361Z,3.90
2023-05-05T00:08:14.355Z,3.70
2023-05-05T00:09:14.345Z,3.80
2023-05-05T00:10:14.381Z,4.00
2023-05-05T00:11:14.330Z,3.90
2023-05-05T00:12:14.301Z,4.00
2023-05-05T00:13:14.306Z,4.00
2023-05-05T00:14:14.282Z,4.00
2023-05-05T00:15:14.282Z,4.30
2023-05-05T00:16:14.263Z,3.90
2023-05-05T00:17:14.327Z,3.70
2023-05-05T00:18:14.218Z,3.70
2023-05-05T00:19:14.228Z,3.70
2023-05-05T00:20:14.194Z,4.10
2023-05-05T00:21:14.197Z,3.80
2023-05-05T00:22:14.177Z,4.30
2023-05-05T00:23:14.171Z,3.70
2023-05-05T00:24:14.143Z,3.70
2023-05-05T00:25:14.154Z,3.80
2023-05-05T00:26:14.139Z,3.70
2023-05-05T00:27:14.082Z,3.70
2023-05-05T00:28:14.207Z,3.50
2023-05-05T00:29:14.114Z,4.10
2023-05-05T00:30:14.049Z,3.50
2023-05-05T00:31:14.109Z,3.90
2023-05-05T00:32:14.030Z,3.80
2023-05-05T00:33:14.090Z,3.90
2023-05-05T00:34:14.005Z,3.80
2023-05-05T00:35:13.979Z,3.70
2023-05-05T00:36:13.973Z,3.70
2023-05-05T00:37:13.949Z,3.60
2023-05-05T00:38:13.941Z,4.00
2023-05-05T00:39:13.998Z,4.10
2023-05-05T00:40:13.986Z,3.70
2023-05-05T00:41:13.927Z,3.50
2023-05-05T00:42:13.907Z,4.10
2023-05-05T00:43:13.874Z,3.60
2023-05-05T00:44:13.872Z,3.60
2023-05-05T00:45:13.858Z,3.70
2023-05-05T00:46:13.861Z,3.80
2023-05-05T00:47:13.837Z,3.70
2023-05-05T00:48:13.810Z,3.80
2023-05-05T00:49:13.878Z,4.00
2023-05-05T00:50:13.820Z,3.80
2023-05-05T00:51:13.777Z,4.00
2023-05-05T00:52:13.766Z,4.50
2023-05-05T00:53:13.793Z,4.20
2023-05-05T00:54:13.734Z,3.80
2023-05-05T00:55:13.723Z,3.70
2023-05-05T00:56:13.738Z,3.50
2023-05-05T00:57:13.739Z,4.10
2023-05-05T00:58:13.678Z,3.60
2023-05-05T00:59:13.673Z,3.60
2023-05-05T01:00:13.661Z,3.40
2023-05-05T01:01:13.684Z,4.00
2023-05-05T01:02:13.633Z,4.00
2023-05-05T01:03:13.738Z,3.50
2023-05-05T01:04:13.637Z,4.00
2023-05-05T01:05:13.584Z,3.90
2023-05-05T01:06:13.562Z,4.10
2023-05-05T01:07:13.544Z,3.80
2023-05-05T01:08:13.562Z,3.80
2023-05-05T01:09:13.549Z,4.00
2023-05-05T01:10:20.164Z,3.90
2023-05-05T01:11:13.540Z,4.00
2023-05-05T01:12:13.490Z,3.80
2023-05-05T01:13:13.540Z,4.10
2023-05-05T01:14:13.466Z,3.60
2023-05-05T01:15:13.435Z,3.50
2023-05-05T01:16:13.462Z,3.60
2023-05-05T01:17:13.414Z,3.60
2023-05-05T01:18:13.435Z,3.90
2023-05-05T01:19:13.435Z,3.70
2023-05-05T01:20:13.386Z,3.50
2023-05-05T01:21:13.397Z,3.70
2023-05-05T01:22:13.361Z,3.80
2023-05-05T01:23:13.349Z,3.60
2023-05-05T01:24:13.329Z,3.60
2023-05-05T01:25:13.357Z,4.00
2023-05-05T01:26:13.345Z,3.70
2023-05-05T01:27:13.282Z,3.80
2023-05-05T01:28:13.280Z,4.20
2023-05-05T01:29:13.254Z,4.00
2023-05-05T01:30:13.245Z,4.10
2023-05-05T01:31:13.250Z,3.90
2023-05-05T01:32:13.221Z,4.50
2023-05-05T01:33:13.203Z,3.80
2023-05-05T01:34:13.188Z,4.20
2023-05-05T01:35:13.171Z,4.30
2023-05-05T01:36:13.135Z,4.10
2023-05-05T01:37:13.167Z,3.90
2023-05-05T01:38:13.137Z,4.10
2023-05-05T01:39:13.137Z,3.90
2023-05-05T01:40:13.136Z,3.90
2023-05-05T01:41:13.109Z,3.80
2023-05-05T01:42:13.070Z,3.90
2023-05-05T01:43:13.053Z,3.60
2023-05-05T01:44:13.044Z,3.90
2023-05-05T01:45:13.047Z,4.20
2023-05-05T01:46:13.212Z,3.90
2023-05-05T01:47:13.026Z,3.70
2023-05-05T01:48:12.996Z,3.70
2023-05-05T01:49:13.014Z,3.70
2023-05-05T01:50:12.960Z,3.70
2023-05-05T01:51:12.936Z,4.00
2023-05-05T01:52:12.959Z,3.80
2023-05-05T01:53:12.918Z,3.40
2023-05-05T01:54:12.888Z,4.30
2023-05-05T01:55:12.885Z,3.60
2023-05-05T01:56:12.895Z,3.60
2023-05-05T01:57:12.893Z,3.80
2023-05-05T01:58:12.833Z,3.80
2023-05-05T01:59:12.839Z,3.50
2023-05-05T02:00:12.818Z,3.80
2023-05-05T02:01:12.825Z,4.10
2023-05-05T02:02:12.848Z,3.60
2023-05-05T02:03:12.871Z,3.60
2023-05-05T02:04:12.745Z,3.60
2023-05-05T02:05:12.749Z,4.20
2023-05-05T02:06:12.715Z,3.90
2023-05-05T02:07:12.743Z,4.00
2023-05-05T02:08:12.707Z,4.00
2023-05-05T02:09:12.695Z,3.70
2023-05-05T02:10:12.660Z,3.50
2023-05-05T02:11:12.661Z,3.80
2023-05-05T02:12:12.646Z,3.60
2023-05-05T02:13:12.740Z,3.70
2023-05-05T02:14:12.671Z,3.50
2023-05-05T02:15:12.596Z,3.60
2023-05-05T02:16:12.627Z,3.90
2023-05-05T02:17:12.599Z,3.90
2023-05-05T02:18:12.559Z,3.90
2023-05-05T02:19:12.546Z,3.70
2023-05-05T02:20:12.580Z,3.60
2023-05-05T02:21:12.537Z,3.80
2023-05-05T02:22:12.521Z,3.90
2023-05-05T02:23:12.502Z,3.70
2023-05-05T02:24:12.473Z,3.70
2023-05-05T02:25:12.464Z,3.90
2023-05-05T02:26:12.476Z,3.90
2023-05-05T02:27:12.440Z,4.40
2023-05-05T02:28:12.422Z,3.70
2023-05-05T02:29:12.434Z,4.30
2023-05-05T02:30:12.395Z,3.80
2023-05-05T02:31:12.393Z,4.00
2023-05-05T02:32:12.386Z,3.50
2023-05-05T02:33:12.373Z,3.80
2023-05-05T02:34:12.340Z,3.60
2023-05-05T02:35:12.345Z,4.00
2023-05-05T02:36:12.342Z,3.70
2023-05-05T02:37:12.299Z,4.20
2023-05-05T02:38:12.296Z,3.50
2023-05-05T02:39:12.267Z,3.50
2023-05-05T02:40:12.263Z,4.40
2023-05-05T02:41:12.249Z,3.80
2023-05-05T02:42:12.234Z,3.90
2023-05-05T02:43:12.266Z,4.00
2023-05-05T02:44:12.196Z,4.00
2023-05-05T02:45:12.196Z,3.90
2023-05-05T02:46:12.270Z,3.90
2023-05-05T02:47:12.158Z,4.30
2023-05-05T02:48:12.150Z,3.80
2023-05-05T02:49:12.126Z,4.20
2023-05-05T02:50:12.145Z,3.50
2023-05-05T02:51:12.116Z,3.70
2023-05-05T02:52:12.087Z,3.80
2023-05-05T02:53:12.099Z,3.60
2023-05-05T02:54:12.118Z,3.80
2023-05-05T02:55:12.066Z,4.20
2023-05-05T02:56:12.043Z,3.80
2023-05-05T02:57:12.031Z,3.60
2023-05-05T02:58:12.035Z,3.60
2023-05-05T02:59:13.302Z,3.80
2023-05-05T03:00:11.985Z,4.20
2023-05-05T03:01:12.068Z,3.40
2023-05-05T03:02:11.966Z,3.90
2023-05-05T03:03:12.083Z,3.50
2023-05-05T03:04:11.961Z,3.90
2023-05-05T03:05:11.951Z,3.70
2023-05-05T03:06:11.920Z,3.90
2023-05-05T03:07:11.906Z,3.80
2023-05-05T03:08:11.931Z,4.00
2023-05-05T03:09:11.883Z,4.00
2023-05-05T03:10:11.858Z,3.90
2023-05-05T03:11:11.839Z,3.80
2023-05-05T03:12:11.852Z,3.50
2023-05-05T03:13:11.958Z,3.90
2023-05-05T03:14:11.829Z,3.70
2023-05-05T03:15:11.823Z,3.50
2023-05-05T03:16:11.824Z,3.90
2023-05-05T03:17:11.779Z,3.90
2023-05-05T03:18:11.784Z,3.60
2023-05-05T03:19:11.753Z,3.50
2023-05-05T03:20:11.723Z,3.80
2023-05-05T03:21:11.712Z,3.50
2023-05-05T03:22:11.720Z,3.90
2023-05-05T03:23:11.684Z,3.60
2023-05-05T03:24:11.678Z,3.70
2023-05-05T03:25:11.666Z,3.50
2023-05-05T03:26:11.647Z,3.70
2023-05-05T03:27:11.640Z,3.60
2023-05-05T03:28:11.633Z,3.80
2023-05-05T03:29:11.648Z,3.70
2023-05-05T03:30:11.646Z,3.70
2023-05-05T03:31:11.597Z,3.40
2023-05-05T03:32:11.631Z,3.40
2023-05-05T03:33:11.576Z,3.70
2023-05-05T03:34:11.554Z,3.60
2023-05-05T03:35:11.551Z,3.40
2023-05-05T03:36:11.517Z,3.30
2023-05-05T03:37:11.521Z,3.70
2023-05-05T03:38:11.495Z,4.00
2023-05-05T03:39:11.515Z,3.90
2023-05-05T03:40:11.498Z,3.60
2023-05-05T03:41:11.449Z,3.60
2023-05-05T03:42:11.458Z,3.60
2023-05-05T03:43:11.474Z,3.90
2023-05-05T03:44:11.426Z,3.60
2023-05-05T03:45:11.386Z,3.70
2023-05-05T03:46:11.403Z,3.50
2023-05-05T03:47:11.365Z,3.90
2023-05-05T03:48:11.362Z,4.00
2023-05-05T03:49:11.358Z,3.60
2023-05-05T03:50:11.335Z,4.00
2023-05-05T03:51:11.308Z,4.00
2023-05-05T03:52:13.249Z,3.80
2023-05-05T03:53:11.288Z,3.80
2023-05-05T03:54:11.308Z,3.90
2023-05-05T03:55:11.277Z,4.20
2023-05-05T03:56:11.291Z,4.00
2023-05-05T03:57:11.233Z,4.10
2023-05-05T03:58:11.233Z,4.30
2023-05-05T03:59:11.232Z,4.10
2023-05-05T04:00:11.216Z,4.20
2023-05-05T04:01:11.218Z,4.00
2023-05-05T04:02:11.236Z,4.10
2023-05-05T04:03:11.383Z,4.00
2023-05-05T04:04:11.264Z,3.90
2023-05-05T04:05:11.157Z,4.00
2023-05-05T04:06:11.112Z,3.90
2023-05-05T04:07:11.109Z,3.90
2023-05-05T04:08:11.123Z,3.70
2023-05-05T04:09:11.076Z,3.60
2023-05-05T04:10:11.118Z,3.40
2023-05-05T04:11:11.036Z,3.50
2023-05-05T04:12:11.015Z,3.40
2023-05-05T04:13:11.243Z,3.40
2023-05-05T04:14:11.000Z,3.20
2023-05-05T04:15:11.116Z,4.00
2023-05-05T04:16:11.042Z,3.90
2023-05-05T04:17:10.983Z,3.60
2023-05-05T04:18:11.002Z,4.20
2023-05-05T04:19:10.938Z,4.00
2023-05-05T04:20:11.123Z,3.70
2023-05-05T04:21:10.900Z,4.00
2023-05-05T04:22:10.893Z,3.80
2023-05-05T04:23:10.877Z,3.50
2023-05-05T04:24:10.855Z,3.90
2023-05-05T04:25:10.883Z,3.90
2023-05-05T04:26:10.833Z,4.70
2023-05-05T04:27:10.852Z,4.20
2023-05-05T04:28:10.838Z,3.90
2023-05-05T04:29:10.804Z,4.10
2023-05-05T04:30:10.822Z,4.60
2023-05-05T04:31:10.853Z,4.30
2023-05-05T04:32:10.741Z,4.50
2023-05-05T04:33:10.778Z,4.80
2023-05-05T04:34:10.727Z,6.30
2023-05-05T04:35:10.713Z,6.60
2023-05-05T04:36:10.687Z,8.80
2023-05-05T04:37:10.716Z,11.80
2023-05-05T04:38:10.661Z,9.90
2023-05-05T04:39:10.650Z,6.90
2023-05-05T04:40:10.662Z,5.90
2023-05-05T04:41:10.628Z,6.00
2023-05-05T04:42:17.821Z,6.60
2023-05-05T04:43:10.607Z,6.30
2023-05-05T04:44:10.583Z,5.90
2023-05-05T04:45:10.575Z,5.40
2023-05-05T04:46:10.588Z,5.10
2023-05-05T04:47:12.612Z,5.10
2023-05-05T04:48:10.533Z,5.00
2023-05-05T04:49:10.513Z,4.70
2023-05-05T04:50:10.679Z,4.30
2023-05-05T04:51:10.493Z,4.40
2023-05-05T04:52:10.467Z,4.30
2023-05-05T04:53:10.458Z,4.40
2023-05-05T04:54:10.444Z,4.50
2023-05-05T04:55:10.432Z,4.70
2023-05-05T04:56:10.416Z,5.00
2023-05-05T04:57:10.396Z,4.80
2023-05-05T04:58:10.376Z,4.80
2023-05-05T04:59:10.388Z,5.20
2023-05-05T05:00:10.499Z,5.20
2023-05-05T05:01:10.367Z,5.20
2023-05-05T05:02:10.385Z,5.60
2023-05-05T05:03:10.473Z,4.60
2023-05-05T05:04:10.300Z,5.20
2023-05-05T05:05:10.293Z,4.50
2023-05-05T05:06:10.264Z,5.30
2023-05-05T05:07:10.263Z,5.50
2023-05-05T05:08:10.261Z,5.00
2023-05-05T05:09:10.273Z,4.20
2023-05-05T05:10:10.418Z,4.50
2023-05-05T05:11:10.210Z,4.70
2023-05-05T05:12:10.197Z,4.80
2023-05-05T05:13:12.415Z,4.60
2023-05-05T05:14:10.230Z,4.30
2023-05-05T05:15:10.171Z,4.10
2023-05-05T05:16:10.191Z,4.10
2023-05-05T05:17:10.120Z,4.10
2023-05-05T05:18:10.879Z,4.40
2023-05-05T05:19:10.174Z,4.50
2023-05-05T05:20:10.353Z,4.30
2023-05-05T05:21:10.128Z,3.80
2023-05-05T05:22:10.081Z,4.00
2023-05-05T05:23:10.054Z,3.30
2023-05-05T05:24:10.096Z,4.10
2023-05-05T05:25:10.065Z,4.10
2023-05-05T05:26:10.029Z,3.50
2023-05-05T05:27:10.367Z,3.60
2023-05-05T05:28:10.951Z,3.30
2023-05-05T05:29:09.967Z,3.60
2023-05-05T05:30:10.143Z,3.30
2023-05-05T05:31:09.957Z,3.90
2023-05-05T05:32:09.999Z,4.10
2023-05-05T05:33:09.956Z,4.00
2023-05-05T05:34:12.586Z,3.80
2023-05-05T05:35:09.935Z,3.70
2023-05-05T05:36:09.885Z,3.80
2023-05-05T05:37:09.934Z,3.60
2023-05-05T05:38:09.853Z,3.60
2023-05-05T05:39:09.819Z,3.40
2023-05-05T05:40:10.008Z,3.70
2023-05-05T05:41:09.821Z,4.20
2023-05-05T05:42:09.778Z,3.60
2023-05-05T05:43:09.758Z,3.30
2023-05-05T05:44:09.759Z,3.30
2023-05-05T05:45:09.759Z,3.40
2023-05-05T05:46:09.786Z,3.30
2023-05-05T05:47:09.716Z,3.30
2023-05-05T05:48:09.773Z,3.60
2023-05-05T05:49:09.702Z,3.00
2023-05-05T05:50:09.882Z,3.10
2023-05-05T05:51:09.672Z,3.00
2023-05-05T05:52:09.673Z,2.70
2023-05-05T05:53:09.685Z,2.70
2023-05-05T05:54:09.608Z,2.70
2023-05-05T05:55:09.598Z,2.80
2023-05-05T05:56:09.592Z,3.20
2023-05-05T05:57:09.565Z,2.60
2023-05-05T05:58:09.556Z,2.70
2023-05-05T05:59:09.568Z,2.90
2023-05-05T06:00:09.859Z,2.60
2023-05-05T06:01:09.550Z,2.50
2023-05-05T06:02:09.530Z,2.30
2023-05-05T06:03:09.687Z,2.30
2023-05-05T06:04:09.564Z,2.40
2023-05-05T06:05:09.478Z,2.40
2023-05-05T06:06:09.492Z,2.60
2023-05-05T06:07:09.430Z,2.70
2023-05-05T06:08:09.444Z,2.60
2023-05-05T06:09:09.419Z,2.50
2023-05-05T06:10:25.818Z,3.00
2023-05-05T06:11:09.405Z,3.10
2023-05-05T06:12:09.361Z,2.90
2023-05-05T06:13:09.408Z,2.80
2023-05-05T06:14:09.344Z,2.70
2023-05-05T06:15:09.322Z,2.80
2023-05-05T06:16:09.405Z,2.60
2023-05-05T06:17:09.309Z,2.80
2023-05-05T06:18:09.314Z,2.60
2023-05-05T06:19:09.267Z,2.40
2023-05-05T06:20:09.398Z,2.70
2023-05-05T06:21:09.249Z,2.30
2023-05-05T06:22:09.285Z,2.50
2023-05-05T06:23:09.225Z,2.70
2023-05-05T06:24:09.201Z,2.50
2023-05-05T06:25:09.185Z,2.50
2023-05-05T06:26:09.207Z,2.60
2023-05-05T06:27:09.183Z,2.50
2023-05-05T06:28:09.182Z,2.50
2023-05-05T06:29:10.505Z,2.50
2023-05-05T06:30:09.323Z,2.60
2023-05-05T06:31:09.193Z,2.80
2023-05-05T06:32:09.099Z,2.60
2023-05-05T06:33:09.185Z,2.30
2023-05-05T06:34:09.075Z,2.10
2023-05-05T06:35:09.061Z,2.60
2023-05-05T06:36:09.077Z,2.20
2023-05-05T06:37:09.017Z,2.60
2023-05-05T06:38:09.049Z,2.20
2023-05-05T06:39:08.991Z,2.20
2023-05-05T06:40:09.232Z,2.30
2023-05-05T06:41:08.992Z,2.30
2023-05-05T06:42:08.965Z,2.50
2023-05-05T06:43:08.947Z,2.20
2023-05-05T06:44:08.975Z,2.30
2023-05-05T06:45:08.944Z,2.40
2023-05-05T06:46:08.937Z,2.60
2023-05-05T06:47:08.947Z,2.30
2023-05-05T06:48:08.940Z,2.20
2023-05-05T06:49:08.850Z,2.40
2023-05-05T06:50:09.379Z,2.20
2023-05-05T06:51:08.829Z,2.30
2023-05-05T06:52:08.876Z,2.20
2023-05-05T06:53:08.807Z,2.20
2023-05-05T06:54:08.788Z,2.30
2023-05-05T06:55:08.790Z,2.20
2023-05-05T06:56:08.764Z,2.30
2023-05-05T06:57:08.778Z,2.00
2023-05-05T06:58:08.776Z,2.50
2023-05-05T06:59:08.708Z,2.10
2023-05-05T07:00:08.859Z,2.30
2023-05-05T07:01:08.773Z,2.20
2023-05-05T07:02:08.702Z,2.50
2023-05-05T07:03:08.712Z,2.60
2023-05-05T07:04:08.693Z,2.60
2023-05-05T07:05:08.666Z,2.50
2023-05-05T07:06:08.655Z,2.20
2023-05-05T07:07:08.620Z,2.20
2023-05-05T07:08:08.625Z,2.00
2023-05-05T07:09:08.607Z,2.30
2023-05-05T07:10:08.901Z,2.20
2023-05-05T07:11:08.572Z,2.10
2023-05-05T07:12:08.561Z,2.10
2023-05-05T07:13:08.608Z,2.30
2023-05-05T07:14:08.524Z,2.20
2023-05-05T07:15:19.410Z,2.50
2023-05-05T07:16:08.519Z,2.10
2023-05-05T07:17:08.501Z,2.20
2023-05-05T07:18:08.566Z,2.50
2023-05-05T07:19:08.449Z,2.50
2023-05-05T07:20:08.929Z,2.40
2023-05-05T07:21:08.485Z,2.00
2023-05-05T07:22:08.434Z,2.40
2023-05-05T07:23:08.404Z,2.10
2023-05-05T07:24:08.389Z,2.60
2023-05-05T07:25:08.377Z,2.80
2023-05-05T07:26:08.359Z,2.20
2023-05-05T07:27:08.363Z,2.10
2023-05-05T07:28:08.344Z,2.50
2023-05-05T07:29:08.346Z,2.30
2023-05-05T07:30:12.295Z,2.70
2023-05-05T07:31:08.303Z,2.30
2023-05-05T07:32:08.354Z,2.50
2023-05-05T07:33:08.413Z,2.40
2023-05-05T07:34:08.285Z,2.30
2023-05-05T07:35:08.248Z,2.20
2023-05-05T07:36:08.276Z,2.30
2023-05-05T07:37:08.249Z,2.40
2023-05-05T07:38:08.796Z,2.50
2023-05-05T07:39:08.189Z,2.40
2023-05-05T07:40:08.429Z,2.40
2023-05-05T07:41:08.165Z,2.20
2023-05-05T07:42:08.172Z,2.00
2023-05-05T07:43:08.141Z,2.10
2023-05-05T07:44:08.161Z,2.10
2023-05-05T07:45:08.410Z,2.40
2023-05-05T07:46:08.222Z,2.50
2023-05-05T07:47:08.094Z,2.20
2023-05-05T07:48:08.131Z,2.70
2023-05-05T07:49:08.080Z,2.30
2023-05-05T07:50:08.198Z,2.50
2023-05-05T07:51:08.052Z,2.50
2023-05-05T07:52:08.040Z,2.40
2023-05-05T07:53:14.219Z,2.50
2023-05-05T07:54:07.998Z,2.20
2023-05-05T07:55:07.995Z,2.40
2023-05-05T07:56:08.002Z,2.20
2023-05-05T07:57:07.992Z,2.30
2023-05-05T07:58:07.960Z,2.20
2023-05-05T07:59:07.968Z,2.10
2023-05-05T08:00:08.164Z,2.20
2023-05-05T08:01:07.899Z,2.30
2023-05-05T08:02:07.980Z,2.40
2023-05-05T08:03:10.714Z,2.30
2023-05-05T08:04:07.929Z,2.10
2023-05-05T08:05:08.196Z,2.80
2023-05-05T08:06:07.867Z,2.40
2023-05-05T08:07:07.841Z,2.20
2023-05-05T08:08:07.840Z,2.50
2023-05-05T08:09:07.832Z,2.40
2023-05-05T08:10:07.794Z,2.00
2023-05-05T08:11:08.178Z,2.20
2023-05-05T08:12:07.778Z,2.90
2023-05-05T08:13:07.833Z,2.60
2023-05-05T08:14:07.761Z,2.30
2023-05-05T08:15:08.148Z,2.40
2023-05-05T08:16:07.846Z,2.50
2023-05-05T08:17:07.764Z,1.90
2023-05-05T08:18:07.709Z,2.40
2023-05-05T08:19:14.825Z,2.30
2023-05-05T08:20:07.677Z,2.30
2023-05-05T08:21:07.667Z,2.60
2023-05-05T08:22:07.733Z,2.60
2023-05-05T08:23:07.626Z,2.20
2023-05-05T08:24:07.621Z,2.50
2023-05-05T08:25:07.874Z,2.40
2023-05-05T08:26:07.578Z,2.90
2023-05-05T08:27:07.591Z,2.50
2023-05-05T08:28:07.561Z,2.80
2023-05-05T08:29:07.554Z,2.70
2023-05-05T08:30:07.534Z,3.10
2023-05-05T08:31:07.528Z,3.10
2023-05-05T08:32:07.507Z,2.60
2023-05-05T08:33:07.554Z,2.40
2023-05-05T08:34:07.485Z,2.20
2023-05-05T08:35:07.874Z,2.40
2023-05-05T08:36:07.485Z,2.60
2023-05-05T08:37:07.469Z,2.80
2023-05-05T08:38:07.433Z,2.60
2023-05-05T08:39:07.404Z,2.50
2023-05-05T08:40:07.510Z,2.70
2023-05-05T08:41:07.387Z,2.30
2023-05-05T08:42:07.383Z,2.50
2023-05-05T08:43:07.374Z,2.50
2023-05-05T08:44:07.377Z,2.50
2023-05-05T08:45:07.723Z,2.40
2023-05-05T08:46:07.326Z,2.30
2023-05-05T08:47:07.441Z,2.40
2023-05-05T08:48:07.318Z,2.50
2023-05-05T08:49:07.288Z,2.30
2023-05-05T08:50:07.316Z,2.90
2023-05-05T08:51:07.261Z,2.60
2023-05-05T08:52:07.263Z,2.50
2023-05-05T08:53:07.229Z,2.40
2023-05-05T08:54:07.209Z,2.70
2023-05-05T08:55:07.436Z,2.80
2023-05-05T08:56:07.193Z,2.30
2023-05-05T08:57:07.172Z,2.60
2023-05-05T08:58:07.186Z,2.20
2023-05-05T08:59:07.152Z,2.20
2023-05-05T09:00:07.142Z,2.60
2023-05-05T09:01:07.267Z,2.50
2023-05-05T09:02:07.121Z,2.60
2023-05-05T09:03:07.373Z,2.50
2023-05-05T09:04:07.111Z,2.30
2023-05-05T09:05:07.283Z,2.40
2023-05-05T09:06:07.069Z,2.40
2023-05-05T09:07:07.071Z,2.50
2023-05-05T09:08:07.040Z,2.10
2023-05-05T09:09:07.052Z,2.70
2023-05-05T09:10:07.013Z,2.70
2023-05-05T09:11:06.994Z,1.90
2023-05-05T09:12:07.061Z,2.30
2023-05-05T09:13:07.020Z,2.50
2023-05-05T09:14:06.956Z,2.30
2023-05-05T09:15:07.079Z,2.20
2023-05-05T09:16:06.927Z,2.30
2023-05-05T09:17:07.005Z,2.70
2023-05-05T09:18:07.018Z,2.50
2023-05-05T09:19:06.893Z,2.80
2023-05-05T09:20:06.933Z,3.00
2023-05-05T09:21:06.903Z,3.20
2023-05-05T09:22:06.853Z,2.60
2023-05-05T09:23:06.844Z,2.10
2023-05-05T09:24:08.389Z,2.40
2023-05-05T09:25:07.112Z,2.40
2023-05-05T09:26:06.912Z,2.30
2023-05-05T09:27:06.842Z,2.40
2023-05-05T09:28:06.782Z,3.00
2023-05-05T09:29:06.808Z,3.50
2023-05-05T09:30:06.784Z,2.70
2023-05-05T09:31:06.832Z,2.40
2023-05-05T09:32:06.749Z,2.20
2023-05-05T09:33:06.760Z,2.40
2023-05-05T09:34:06.710Z,2.50
2023-05-05T09:35:06.913Z,2.40
2023-05-05T09:36:06.673Z,2.70
2023-05-05T09:37:06.701Z,2.50
2023-05-05T09:38:06.871Z,2.60
2023-05-05T09:39:06.670Z,2.60
2023-05-05T09:40:06.633Z,2.40
2023-05-05T09:41:06.615Z,2.50
2023-05-05T09:42:06.616Z,2.60
2023-05-05T09:43:06.585Z,2.80
2023-05-05T09:44:06.582Z,2.60
2023-05-05T09:45:06.730Z,2.90
2023-05-05T09:46:06.573Z,2.80
2023-05-05T09:47:18.075Z,2.20
2023-05-05T09:48:06.550Z,2.40
2023-05-05T09:49:06.515Z,2.30
2023-05-05T09:50:06.705Z,3.00
2023-05-05T09:51:06.478Z,2.80
2023-05-05T09:52:06.475Z,2.60
2023-05-05T09:53:06.462Z,2.50
2023-05-05T09:54:06.470Z,2.60
2023-05-05T09:55:06.435Z,2.90
2023-05-05T09:56:06.412Z,2.40
2023-05-05T09:57:06.397Z,2.90
2023-05-05T09:58:06.421Z,2.40
2023-05-05T09:59:06.923Z,2.50
2023-05-05T10:00:06.721Z,2.80
2023-05-05T10:01:06.470Z,2.90
2023-05-05T10:02:06.362Z,2.70
2023-05-05T10:03:06.414Z,2.40
2023-05-05T10:04:06.324Z,2.10
2023-05-05T10:05:06.441Z,2.00
2023-05-05T10:06:06.314Z,2.20
2023-05-05T10:07:06.285Z,1.90
2023-05-05T10:08:06.277Z,2.50
2023-05-05T10:09:06.249Z,2.50
2023-05-05T10:10:06.452Z,2.40
2023-05-05T10:11:06.247Z,2.50
2023-05-05T10:12:06.229Z,2.30
2023-05-05T10:13:06.275Z,2.40
2023-05-05T10:14:06.205Z,2.50
2023-05-05T10:15:06.182Z,2.40
2023-05-05T10:16:06.229Z,2.20
2023-05-05T10:17:06.156Z,2.40
2023-05-05T10:18:08.196Z,2.00
2023-05-05T10:19:06.117Z,2.10
2023-05-05T10:20:06.237Z,2.10
2023-05-05T10:21:06.095Z,2.00
2023-05-05T10:22:06.117Z,2.60
2023-05-05T10:23:06.061Z,2.10
2023-05-05T10:24:06.046Z,2.10
2023-05-05T10:25:06.052Z,2.00
2023-05-05T10:26:06.037Z,2.20
2023-05-05T10:27:06.011Z,1.80
2023-05-05T10:28:06.010Z,2.20
2023-05-05T10:29:06.015Z,2.20
2023-05-05T10:30:06.177Z,2.00
2023-05-05T10:31:16.184Z,2.00
2023-05-05T10:32:18.833Z,2.50
2023-05-05T10:33:27.299Z,2.20
2023-05-05T10:34:06.030Z,2.50
2023-05-05T10:35:05.917Z,2.20
2023-05-05T10:36:05.933Z,3.00
2023-05-05T10:37:05.914Z,1.90
2023-05-05T10:38:05.885Z,2.00
2023-05-05T10:39:05.869Z,2.40
2023-05-05T10:40:06.067Z,2.20
2023-05-05T10:41:05.839Z,4.80
2023-05-05T10:42:05.815Z,3.40
2023-05-05T10:43:05.801Z,2.30
2023-05-05T10:44:05.797Z,2.60
2023-05-05T10:45:05.867Z,2.00
2023-05-05T10:46:05.790Z,2.40
2023-05-05T10:47:05.775Z,2.00
2023-05-05T10:48:05.825Z,1.90
2023-05-05T10:49:05.744Z,2.00
2023-05-05T10:50:05.811Z,2.10
2023-05-05T10:51:05.713Z,1.90
2023-05-05T10:52:05.701Z,2.20
2023-05-05T10:53:05.710Z,2.30
2023-05-05T10:54:05.704Z,2.00
2023-05-05T10:55:05.669Z,2.00
2023-05-05T10:56:05.640Z,2.20
2023-05-05T10:57:05.648Z,2.20
2023-05-05T10:58:05.646Z,2.30
2023-05-05T10:59:05.645Z,1.70
2023-05-05T11:00:05.774Z,1.90
2023-05-05T11:01:05.641Z,2.10
2023-05-05T11:02:05.591Z,2.20
2023-05-05T11:03:05.597Z,1.90
2023-05-05T11:04:05.618Z,1.60
2023-05-05T11:05:05.549Z,2.00
2023-05-05T11:06:05.541Z,2.30
2023-05-05T11:07:05.499Z,2.30
2023-05-05T11:08:05.517Z,2.20
2023-05-05T11:09:05.482Z,2.10
2023-05-05T11:10:05.576Z,2.10
2023-05-05T11:11:05.481Z,2.10
2023-05-05T11:12:05.446Z,2.00
2023-05-05T11:13:05.455Z,2.60
2023-05-05T11:14:05.419Z,2.50
2023-05-05T11:15:05.456Z,2.40
2023-05-05T11:16:05.441Z,2.20
2023-05-05T11:17:05.403Z,2.20
2023-05-05T11:18:07.474Z,2.30
2023-05-05T11:19:05.350Z,2.40
2023-05-05T11:20:05.495Z,2.60
2023-05-05T11:21:05.358Z,2.30
2023-05-05T11:22:05.322Z,2.50
2023-05-05T11:23:05.571Z,2.40
2023-05-05T11:24:05.277Z,2.30
2023-05-05T11:25:05.268Z,2.40
2023-05-05T11:26:05.282Z,2.30
2023-05-05T11:27:05.236Z,2.10
2023-05-05T11:28:05.239Z,2.20
2023-05-05T11:29:05.229Z,2.40
2023-05-05T11:30:05.221Z,2.60
2023-05-05T11:31:05.249Z,1.90
2023-05-05T11:32:05.215Z,2.20
2023-05-05T11:33:05.217Z,2.00
2023-05-05T11:34:05.179Z,2.20
2023-05-05T11:35:05.131Z,2.20
2023-05-05T11:36:06.714Z,2.60
2023-05-05T11:37:05.139Z,2.40
2023-05-05T11:38:05.095Z,2.40
2023-05-05T11:39:05.105Z,2.20
2023-05-05T11:40:05.276Z,2.50
2023-05-05T11:41:05.080Z,2.20
2023-05-05T11:42:10.048Z,2.10
2023-05-05T11:43:05.032Z,2.20
2023-05-05T11:44:05.049Z,2.40
2023-05-05T11:45:05.014Z,2.40
2023-05-05T11:46:05.037Z,2.50
2023-05-05T11:47:04.996Z,2.20
2023-05-05T11:48:04.996Z,2.20
2023-05-05T11:49:04.968Z,2.30
2023-05-05T11:50:04.933Z,2.00
2023-05-05T11:51:04.952Z,2.10
2023-05-05T11:52:05.009Z,1.90
2023-05-05T11:53:04.939Z,2.00
2023-05-05T11:54:04.886Z,1.70
2023-05-05T11:55:04.912Z,2.00
2023-05-05T11:56:04.890Z,1.80
2023-05-05T11:57:04.875Z,1.70
2023-05-05T11:58:04.837Z,1.80
2023-05-05T11:59:04.824Z,1.80
2023-05-05T12:00:04.808Z,1.90
2023-05-05T12:01:04.805Z,1.50
2023-05-05T12:02:04.845Z,1.80
2023-05-05T12:03:04.812Z,1.60
2023-05-05T12:04:05.021Z,2.00
2023-05-05T12:05:04.756Z,1.70
2023-05-05T12:06:04.751Z,1.90
2023-05-05T12:07:04.746Z,1.90
2023-05-05T12:08:04.727Z,2.10
2023-05-05T12:09:04.724Z,1.60
2023-05-05T12:10:04.701Z,2.10
2023-05-05T12:11:04.737Z,1.80
2023-05-05T12:12:04.691Z,1.80
2023-05-05T12:13:04.710Z,1.90
2023-05-05T12:14:04.645Z,1.70
2023-05-05T12:15:04.654Z,1.70
2023-05-05T12:16:04.640Z,2.10
2023-05-05T12:17:05.482Z,1.90
2023-05-05T12:18:04.639Z,2.00
2023-05-05T12:19:04.632Z,1.90
2023-05-05T12:20:04.575Z,1.80
2023-05-05T12:21:04.558Z,1.90
2023-05-05T12:22:04.689Z,1.80
2023-05-05T12:23:04.732Z,1.70
2023-05-05T12:24:04.507Z,1.80
2023-05-05T12:25:04.572Z,1.70
2023-05-05T12:26:04.498Z,1.90
2023-05-05T12:27:04.482Z,1.70
2023-05-05T12:28:04.490Z,1.50
2023-05-05T12:29:04.472Z,1.80
2023-05-05T12:30:04.442Z,1.40
2023-05-05T12:31:04.464Z,1.70
2023-05-05T12:32:04.506Z,1.90
2023-05-05T12:33:04.537Z,2.10
2023-05-05T12:34:04.378Z,1.70
2023-05-05T12:35:04.410Z,2.10
2023-05-05T12:36:04.364Z,2.00
2023-05-05T12:37:04.375Z,2.00
2023-05-05T12:38:04.459Z,2.00
2023-05-05T12:39:04.354Z,2.20
2023-05-05T12:40:04.335Z,2.00
2023-05-05T12:41:04.322Z,2.00
2023-05-05T12:42:04.293Z,1.80
2023-05-05T12:43:04.278Z,2.10
2023-05-05T12:44:04.301Z,2.10
2023-05-05T12:45:04.242Z,2.20
2023-05-05T12:46:04.275Z,2.00
2023-05-05T12:47:04.265Z,2.30
2023-05-05T12:48:04.393Z,2.20
2023-05-05T12:49:04.198Z,2.20
2023-05-05T12:50:04.194Z,2.10
2023-05-05T12:51:04.162Z,2.10
2023-05-05T12:52:04.140Z,2.10
2023-05-05T12:53:04.146Z,2.00
2023-05-05T12:54:04.126Z,2.50
2023-05-05T12:55:04.096Z,2.20
2023-05-05T12:56:04.096Z,1.90
2023-05-05T12:57:04.080Z,1.80
2023-05-05T12:58:04.064Z,1.90
2023-05-05T12:59:04.070Z,1.80
2023-05-05T13:00:04.030Z,1.80
2023-05-05T13:01:04.091Z,1.90
2023-05-05T13:02:04.070Z,2.10
2023-05-05T13:03:04.103Z,2.10
2023-05-05T13:04:03.992Z,1.80
2023-05-05T13:05:03.980Z,1.80
2023-05-05T13:06:03.963Z,2.10
2023-05-05T13:07:03.992Z,2.30
2023-05-05T13:08:03.966Z,1.70
2023-05-05T13:09:03.951Z,1.90
2023-05-05T13:10:03.915Z,2.00
2023-05-05T13:11:03.917Z,2.00
2023-05-05T13:12:03.914Z,1.70
2023-05-05T13:13:03.908Z,1.80
2023-05-05T13:14:03.886Z,2.10
2023-05-05T13:15:03.852Z,2.20
2023-05-05T13:16:03.920Z,2.50
2023-05-05T13:17:03.834Z,2.50
2023-05-05T13:18:03.830Z,3.00